sensor_id;sensor_type;location;lat;lon;timestamp;temperature;humidity
36856;DHT22;22788;51.434;6.786;2023-05-10T00:00:21;16.40;99.90
36856;DHT22;22788;51.434;6.786;2023-05-10T00:02:47;16.30;99.90
36856;DHT22;22788;51.434;6.786;2023-05-10T00:05:12;16.30;99.90
36856;DHT22;22788;51.434;6.786;2023-05-10T00:07:38;16.30;99.90
36856;DHT22;22788;51.434;6.786;2023-05-10T00:10:06;16.30;99.90
36856;DHT22;22788;51.434;6.786;2023-05-10T00:12:31;16.30;99.90
36856;DHT22;22788;51.434;6.786;2023-05-10T00:14:57;16.30;99.90
36856;DHT22;22788;51.434;6.786;2023-05-10T00:17:23;16.30;99.90
36856;DHT22;22788;51.434;6.786;2023-05-10T00:19:48;16.30;99.90
36856;DHT22;22788;51.434;6.786;2023-05-10T00:22:14;16.20;99.90
36856;DHT22;22788;51.434;6.786;2023-05-10T00:24:39;16.20;99.90
36856;DHT22;22788;51.434;6.786;2023-05-10T00:27:06;16.20;99.90
36856;DHT22;22788;51.434;6.786;2023-05-10T00:29:32;16.20;99.90
36856;DHT22;22788;51.434;6.786;2023-05-10T00:31:58;16.20;99.90
36856;DHT22;22788;51.434;6.786;2023-05-10T00:34:23;16.10;99.90
36856;DHT22;22788;51.434;6.786;2023-05-10T00:36:49;16.10;99.90
36856;DHT22;22788;51.434;6.786;2023-05-10T00:39:14;16.10;99.90
36856;DHT22;22788;51.434;6.786;2023-05-10T00:41:40;16.10;99.90
36856;DHT22;22788;51.434;6.786;2023-05-10T00:44:07;16.10;99.90
36856;DHT22;22788;51.434;6.786;2023-05-10T00:46:32;16.10;99.90
36856;DHT22;22788;51.434;6.786;2023-05-10T00:48:58;16.10;99.90
36856;DHT22;22788;51.434;6.786;2023-05-10T00:51:24;16.20;99.90
36856;DHT22;22788;51.434;6.786;2023-05-10T00:53:50;16.30;99.90
36856;DHT22;22788;51.434;6.786;2023-05-10T00:56:16;16.20;99.90
36856;DHT22;22788;51.434;6.786;2023-05-10T00:58:42;16.30;99.90
36856;DHT22;22788;51.434;6.786;2023-05-10T01:01:09;16.30;99.90
36856;DHT22;22788;51.434;6.786;2023-05-10T01:03:36;16.30;99.90
36856;DHT22;22788;51.434;6.786;2023-05-10T01:06:02;16.20;99.90
36856;DHT22;22788;51.434;6.786;2023-05-10T01:08:27;16.30;99.90
36856;DHT22;22788;51.434;6.786;2023-05-10T01:10:54;16.20;99.90
36856;DHT22;22788;51.434;6.786;2023-05-10T01:13:29;16.20;99.90
36856;DHT22;22788;51.434;6.786;2023-05-10T01:15:56;16.20;99.90
36856;DHT22;22788;51.434;6.786;2023-05-10T01:18:24;16.30;99.90
36856;DHT22;22788;51.434;6.786;2023-05-10T01:20:59;16.20;99.90
36856;DHT22;22788;51.434;6.786;2023-05-10T01:23:40;16.30;99.90
36856;DHT22;22788;51.434;6.786;2023-05-10T01:26:38;16.10;99.90
36856;DHT22;22788;51.434;6.786;2023-05-10T01:29:19;16.10;99.90
36856;DHT22;22788;51.434;6.786;2023-05-10T01:32:00;16.10;99.90
36856;DHT22;22788;51.434;6.786;2023-05-10T01:34:35;16.10;99.90
36856;DHT22;22788;51.434;6.786;2023-05-10T01:37:09;16.00;99.90
36856;DHT22;22788;51.434;6.786;2023-05-10T01:39:42;16.10;99.90
36856;DHT22;22788;51.434;6.786;2023-05-10T01:42:11;16.00;99.90
36856;DHT22;22788;51.434;6.786;2023-05-10T01:44:42;16.00;99.90
36856;DHT22;22788;51.434;6.786;2023-05-10T01:47:15;16.00;99.90
36856;DHT22;22788;51.434;6.786;2023-05-10T01:49:45;16.10;99.90
36856;DHT22;22788;51.434;6.786;2023-05-10T01:52:14;16.00;99.90
36856;DHT22;22788;51.434;6.786;2023-05-10T01:54:43;16.10;99.90
36856;DHT22;22788;51.434;6.786;2023-05-10T01:57:10;16.00;99.90
36856;DHT22;22788;51.434;6.786;2023-05-10T01:59:39;16.10;99.90
36856;DHT22;22788;51.434;6.786;2023-05-10T02:02:06;16.10;99.90
36856;DHT22;22788;51.434;6.786;2023-05-10T02:04:35;16.10;99.90
36856;DHT22;22788;51.434;6.786;2023-05-10T02:07:02;16.20;99.90
36856;DHT22;22788;51.434;6.786;2023-05-10T02:09:30;16.20;99.90
36856;DHT22;22788;51.434;6.786;2023-05-10T02:11:58;16.20;99.90
36856;DHT22;22788;51.434;6.786;2023-05-10T02:14:26;16.20;99.90
36856;DHT22;22788;51.434;6.786;2023-05-10T02:16:53;16.20;99.90
36856;DHT22;22788;51.434;6.786;2023-05-10T02:19:22;16.20;99.90
36856;DHT22;22788;51.434;6.786;2023-05-10T02:21:50;16.20;99.90
36856;DHT22;22788;51.434;6.786;2023-05-10T02:24:17;16.20;99.90
36856;DHT22;22788;51.434;6.786;2023-05-10T02:26:45;16.20;99.90
36856;DHT22;22788;51.434;6.786;2023-05-10T02:29:12;16.20;99.90
36856;DHT22;22788;51.434;6.786;2023-05-10T02:31:40;16.20;99.90
36856;DHT22;22788;51.434;6.786;2023-05-10T02:34:07;16.20;99.90
36856;DHT22;22788;51.434;6.786;2023-05-10T02:36:34;16.20;99.90
36856;DHT22;22788;51.434;6.786;2023-05-10T02:39:02;16.10;99.90
36856;DHT22;22788;51.434;6.786;2023-05-10T02:41:28;16.10;99.90
36856;DHT22;22788;51.434;6.786;2023-05-10T02:43:59;16.20;99.90
36856;DHT22;22788;51.434;6.786;2023-05-10T02:46:25;16.20;99.90
36856;DHT22;22788;51.434;6.786;2023-05-10T02:48:50;16.10;99.90
36856;DHT22;22788;51.434;6.786;2023-05-10T02:51:18;16.10;99.90
36856;DHT22;22788;51.434;6.786;2023-05-10T02:53:46;16.10;99.90
36856;DHT22;22788;51.434;6.786;2023-05-10T02:56:20;16.10;99.90
36856;DHT22;22788;51.434;6.786;2023-05-10T02:58:48;16.00;99.90
36856;DHT22;22788;51.434;6.786;2023-05-10T03:01:14;16.10;99.90
36856;DHT22;22788;51.434;6.786;2023-05-10T03:03:40;16.10;99.90
36856;DHT22;22788;51.434;6.786;2023-05-10T03:06:05;16.10;99.90
36856;DHT22;22788;51.434;6.786;2023-05-10T03:08:31;16.10;99.90
36856;DHT22;22788;51.434;6.786;2023-05-10T03:11:07;16.00;99.90
36856;DHT22;22788;51.434;6.786;2023-05-10T03:13:42;16.10;99.90
36856;DHT22;22788;51.434;6.786;2023-05-10T03:16:12;16.10;99.90
36856;DHT22;22788;51.434;6.786;2023-05-10T03:18:44;16.10;99.90
36856;DHT22;22788;51.434;6.786;2023-05-10T03:21:11;16.10;99.90
36856;DHT22;22788;51.434;6.786;2023-05-10T03:23:41;16.00;99.90
36856;DHT22;22788;51.434;6.786;2023-05-10T03:26:08;16.00;99.90
36856;DHT22;22788;51.434;6.786;2023-05-10T03:28:36;16.10;99.90
36856;DHT22;22788;51.434;6.786;2023-05-10T03:31:02;16.10;99.90
36856;DHT22;22788;51.434;6.786;2023-05-10T03:33:29;16.10;99.90
36856;DHT22;22788;51.434;6.786;2023-05-10T03:35:55;16.10;99.90
36856;DHT22;22788;51.434;6.786;2023-05-10T03:38:20;16.00;99.90
36856;DHT22;22788;51.434;6.786;2023-05-10T03:40:46;16.00;99.90
36856;DHT22;22788;51.434;6.786;2023-05-10T03:43:12;16.10;99.90
36856;DHT22;22788;51.434;6.786;2023-05-10T03:45:39;16.10;99.90
36856;DHT22;22788;51.434;6.786;2023-05-10T03:48:05;16.10;99.90
36856;DHT22;22788;51.434;6.786;2023-05-10T03:50:30;16.00;99.90
36856;DHT22;22788;51.434;6.786;2023-05-10T03:52:56;16.00;99.90
36856;DHT22;22788;51.434;6.786;2023-05-10T03:55:22;16.00;99.90
36856;DHT22;22788;51.434;6.786;2023-05-10T03:57:47;15.90;99.90
36856;DHT22;22788;51.434;6.786;2023-05-10T04:00:13;15.90;99.90
36856;DHT22;22788;51.434;6.786;2023-05-10T04:02:40;16.00;99.90
36856;DHT22;22788;51.434;6.786;2023-05-10T04:05:07;15.90;99.90
36856;DHT22;22788;51.434;6.786;2023-05-10T04:07:32;15.90;99.90
36856;DHT22;22788;51.434;6.786;2023-05-10T04:09:58;16.00;99.90
36856;DHT22;22788;51.434;6.786;2023-05-10T04:12:24;16.00;99.90
36856;DHT22;22788;51.434;6.786;2023-05-10T04:14:49;16.00;99.90
36856;DHT22;22788;51.434;6.786;2023-05-10T04:17:15;16.00;99.90
36856;DHT22;22788;51.434;6.786;2023-05-10T04:19:42;15.90;99.90
36856;DHT22;22788;51.434;6.786;2023-05-10T04:22:07;15.90;99.90
36856;DHT22;22788;51.434;6.786;2023-05-10T04:24:33;15.80;99.90
36856;DHT22;22788;51.434;6.786;2023-05-10T04:26:59;15.80;99.90
36856;DHT22;22788;51.434;6.786;2023-05-10T04:29:24;15.80;99.90
36856;DHT22;22788;51.434;6.786;2023-05-10T04:31:50;15.90;99.90
36856;DHT22;22788;51.434;6.786;2023-05-10T04:34:15;15.90;99.90
36856;DHT22;22788;51.434;6.786;2023-05-10T04:36:42;15.90;99.90
36856;DHT22;22788;51.434;6.786;2023-05-10T04:39:08;15.90;99.90
36856;DHT22;22788;51.434;6.786;2023-05-10T04:41:33;15.80;99.90
36856;DHT22;22788;51.434;6.786;2023-05-10T04:43:59;15.70;99.90
36856;DHT22;22788;51.434;6.786;2023-05-10T04:46:25;15.70;99.90
36856;DHT22;22788;51.434;6.786;2023-05-10T04:48:50;15.70;99.90
36856;DHT22;22788;51.434;6.786;2023-05-10T04:51:16;15.70;99.90
36856;DHT22;22788;51.434;6.786;2023-05-10T04:53:43;15.70;99.90
36856;DHT22;22788;51.434;6.786;2023-05-10T04:56:08;15.70;99.90
36856;DHT22;22788;51.434;6.786;2023-05-10T04:58:34;15.70;99.90
36856;DHT22;22788;51.434;6.786;2023-05-10T05:01:05;15.80;99.90
36856;DHT22;22788;51.434;6.786;2023-05-10T05:03:32;15.70;99.90
36856;DHT22;22788;51.434;6.786;2023-05-10T05:05:58;15.70;99.90
36856;DHT22;22788;51.434;6.786;2023-05-10T05:08:23;15.60;99.90
36856;DHT22;22788;51.434;6.786;2023-05-10T05:10:51;15.70;99.90
36856;DHT22;22788;51.434;6.786;2023-05-10T05:13:16;15.70;99.90
36856;DHT22;22788;51.434;6.786;2023-05-10T05:15:42;15.70;99.90
36856;DHT22;22788;51.434;6.786;2023-05-10T05:18:07;15.70;99.90
36856;DHT22;22788;51.434;6.786;2023-05-10T05:20:33;15.70;99.90
36856;DHT22;22788;51.434;6.786;2023-05-10T05:22:58;15.70;99.90
36856;DHT22;22788;51.434;6.786;2023-05-10T05:25:24;15.70;99.90
36856;DHT22;22788;51.434;6.786;2023-05-10T05:27:51;15.70;99.90
36856;DHT22;22788;51.434;6.786;2023-05-10T05:30:17;15.70;99.90
36856;DHT22;22788;51.434;6.786;2023-05-10T05:32:43;15.70;99.90
36856;DHT22;22788;51.434;6.786;2023-05-10T05:35:09;15.70;99.90
36856;DHT22;22788;51.434;6.786;2023-05-10T05:37:35;15.70;99.90
36856;DHT22;22788;51.434;6.786;2023-05-10T05:40:00;15.70;99.90
36856;DHT22;22788;51.434;6.786;2023-05-10T05:42:26;15.70;99.90
36856;DHT22;22788;51.434;6.786;2023-05-10T05:44:53;15.70;99.90
36856;DHT22;22788;51.434;6.786;2023-05-10T05:47:19;15.70;99.90
36856;DHT22;22788;51.434;6.786;2023-05-10T05:49:44;15.70;99.90
36856;DHT22;22788;51.434;6.786;2023-05-10T05:52:10;15.60;99.90
36856;DHT22;22788;51.434;6.786;2023-05-10T05:54:35;15.70;99.90
36856;DHT22;22788;51.434;6.786;2023-05-10T05:57:01;15.60;99.90
36856;DHT22;22788;51.434;6.786;2023-05-10T05:59:27;15.60;99.90
36856;DHT22;22788;51.434;6.786;2023-05-10T06:01:53;15.70;99.90
36856;DHT22;22788;51.434;6.786;2023-05-10T06:04:19;15.60;99.90
36856;DHT22;22788;51.434;6.786;2023-05-10T06:06:45;15.60;99.90
36856;DHT22;22788;51.434;6.786;2023-05-10T06:09:11;15.70;99.90
36856;DHT22;22788;51.434;6.786;2023-05-10T06:11:37;15.70;99.90
36856;DHT22;22788;51.434;6.786;2023-05-10T06:14:04;15.70;99.90
36856;DHT22;22788;51.434;6.786;2023-05-10T06:16:29;15.60;99.90
36856;DHT22;22788;51.434;6.786;2023-05-10T06:18:56;15.60;99.90
36856;DHT22;22788;51.434;6.786;2023-05-10T06:21:22;15.60;99.90
36856;DHT22;22788;51.434;6.786;2023-05-10T06:23:47;15.60;99.90
36856;DHT22;22788;51.434;6.786;2023-05-10T06:26:13;15.60;99.90
36856;DHT22;22788;51.434;6.786;2023-05-10T06:28:39;15.70;99.90
36856;DHT22;22788;51.434;6.786;2023-05-10T06:31:04;15.70;99.90
36856;DHT22;22788;51.434;6.786;2023-05-10T06:33:30;15.70;99.90
36856;DHT22;22788;51.434;6.786;2023-05-10T06:35:57;15.60;99.90
36856;DHT22;22788;51.434;6.786;2023-05-10T06:38:23;15.60;99.90
36856;DHT22;22788;51.434;6.786;2023-05-10T06:40:48;15.60;99.90
36856;DHT22;22788;51.434;6.786;2023-05-10T06:43:14;15.70;99.90
36856;DHT22;22788;51.434;6.786;2023-05-10T06:45:40;15.70;99.90
36856;DHT22;22788;51.434;6.786;2023-05-10T06:48:05;15.70;99.90
36856;DHT22;22788;51.434;6.786;2023-05-10T06:50:31;15.60;99.90
36856;DHT22;22788;51.434;6.786;2023-05-10T06:52:58;15.50;99.90
36856;DHT22;22788;51.434;6.786;2023-05-10T06:55:23;15.50;99.90
36856;DHT22;22788;51.434;6.786;2023-05-10T06:57:49;15.70;99.90
36856;DHT22;22788;51.434;6.786;2023-05-10T07:00:15;15.60;99.90
36856;DHT22;22788;51.434;6.786;2023-05-10T07:02:41;15.60;99.90
36856;DHT22;22788;51.434;6.786;2023-05-10T07:05:07;15.60;99.90
36856;DHT22;22788;51.434;6.786;2023-05-10T07:07:33;15.60;99.90
36856;DHT22;22788;51.434;6.786;2023-05-10T07:10:00;15.70;99.90
36856;DHT22;22788;51.434;6.786;2023-05-10T07:12:25;15.70;99.90
36856;DHT22;22788;51.434;6.786;2023-05-10T07:14:51;15.60;99.90
36856;DHT22;22788;51.434;6.786;2023-05-10T07:17:17;15.60;99.90
36856;DHT22;22788;51.434;6.786;2023-05-10T07:19:42;15.60;99.90
36856;DHT22;22788;51.434;6.786;2023-05-10T07:22:08;15.60;99.90
36856;DHT22;22788;51.434;6.786;2023-05-10T07:24:33;15.50;99.90
36856;DHT22;22788;51.434;6.786;2023-05-10T07:27:00;15.60;99.90
36856;DHT22;22788;51.434;6.786;2023-05-10T07:29:26;15.60;99.90
36856;DHT22;22788;51.434;6.786;2023-05-10T07:31:52;15.60;99.90
36856;DHT22;22788;51.434;6.786;2023-05-10T07:34:17;15.70;99.90
36856;DHT22;22788;51.434;6.786;2023-05-10T07:36:43;15.70;99.90
36856;DHT22;22788;51.434;6.786;2023-05-10T09:31:45;16.20;99.90
36856;DHT22;22788;51.434;6.786;2023-05-10T09:34:11;16.10;99.90
36856;DHT22;22788;51.434;6.786;2023-05-10T09:36:36;16.00;99.90
36856;DHT22;22788;51.434;6.786;2023-05-10T09:39:02;16.00;99.90
36856;DHT22;22788;51.434;6.786;2023-05-10T09:41:27;16.00;99.90
36856;DHT22;22788;51.434;6.786;2023-05-10T09:43:56;15.90;99.90
36856;DHT22;22788;51.434;6.786;2023-05-10T09:46:22;15.90;99.90
36856;DHT22;22788;51.434;6.786;2023-05-10T09:48:48;15.80;99.90
36856;DHT22;22788;51.434;6.786;2023-05-10T09:51:20;15.80;99.90
36856;DHT22;22788;51.434;6.786;2023-05-10T09:53:46;15.80;99.90
36856;DHT22;22788;51.434;6.786;2023-05-10T09:56:12;15.80;99.90
36856;DHT22;22788;51.434;6.786;2023-05-10T09:58:39;15.80;99.90
36856;DHT22;22788;51.434;6.786;2023-05-10T10:01:10;15.80;99.90
36856;DHT22;22788;51.434;6.786;2023-05-10T10:03:41;15.60;99.90
36856;DHT22;22788;51.434;6.786;2023-05-10T10:06:08;15.80;99.90
36856;DHT22;22788;51.434;6.786;2023-05-10T10:08:33;15.80;99.90
36856;DHT22;22788;51.434;6.786;2023-05-10T10:10:59;15.80;99.90
36856;DHT22;22788;51.434;6.786;2023-05-10T10:13:25;15.80;99.90
36856;DHT22;22788;51.434;6.786;2023-05-10T10:15:52;15.80;99.90
36856;DHT22;22788;51.434;6.786;2023-05-10T10:18:19;15.80;99.90
36856;DHT22;22788;51.434;6.786;2023-05-10T10:20:46;15.80;99.90
36856;DHT22;22788;51.434;6.786;2023-05-10T10:23:11;15.70;99.90
36856;DHT22;22788;51.434;6.786;2023-05-10T10:25:37;15.80;99.90
36856;DHT22;22788;51.434;6.786;2023-05-10T10:28:12;15.80;99.90
36856;DHT22;22788;51.434;6.786;2023-05-10T10:30:42;15.80;99.90
36856;DHT22;22788;51.434;6.786;2023-05-10T10:33:28;15.80;99.90
36856;DHT22;22788;51.434;6.786;2023-05-10T10:35:58;15.80;99.90
36856;DHT22;22788;51.434;6.786;2023-05-10T10:38:24;15.70;99.90
36856;DHT22;22788;51.434;6.786;2023-05-10T10:41:02;15.70;99.90
36856;DHT22;22788;51.434;6.786;2023-05-10T10:43:28;15.70;99.90
36856;DHT22;22788;51.434;6.786;2023-05-10T10:46:11;15.70;99.90
36856;DHT22;22788;51.434;6.786;2023-05-10T10:48:38;15.70;99.90
36856;DHT22;22788;51.434;6.786;2023-05-10T10:51:04;15.70;99.90
36856;DHT22;22788;51.434;6.786;2023-05-10T10:53:30;15.70;99.90
36856;DHT22;22788;51.434;6.786;2023-05-10T10:56:05;15.70;99.90
36856;DHT22;22788;51.434;6.786;2023-05-10T10:58:31;15.80;99.90
36856;DHT22;22788;51.434;6.786;2023-05-10T11:01:12;15.80;99.90
36856;DHT22;22788;51.434;6.786;2023-05-10T11:03:40;15.80;99.90
36856;DHT22;22788;51.434;6.786;2023-05-10T11:06:05;15.70;99.90
36856;DHT22;22788;51.434;6.786;2023-05-10T11:08:32;15.80;99.90
36856;DHT22;22788;51.434;6.786;2023-05-10T11:11:06;15.90;99.90
36856;DHT22;22788;51.434;6.786;2023-05-10T11:13:33;15.90;99.90
36856;DHT22;22788;51.434;6.786;2023-05-10T11:15:59;15.90;99.90
36856;DHT22;22788;51.434;6.786;2023-05-10T11:18:36;15.90;99.90
36856;DHT22;22788;51.434;6.786;2023-05-10T11:21:03;15.90;99.90
36856;DHT22;22788;51.434;6.786;2023-05-10T11:23:30;15.90;99.90
36856;DHT22;22788;51.434;6.786;2023-05-10T11:25:56;16.00;99.90
36856;DHT22;22788;51.434;6.786;2023-05-10T11:28:22;16.00;99.90
36856;DHT22;22788;51.434;6.786;2023-05-10T11:30:48;16.00;99.90
36856;DHT22;22788;51.434;6.786;2023-05-10T11:33:17;16.00;99.90
36856;DHT22;22788;51.434;6.786;2023-05-10T11:35:43;16.00;99.90
36856;DHT22;22788;51.434;6.786;2023-05-10T11:38:11;16.00;99.90
36856;DHT22;22788;51.434;6.786;2023-05-10T11:40:38;16.00;99.90
36856;DHT22;22788;51.434;6.786;2023-05-10T11:43:04;16.00;99.90
36856;DHT22;22788;51.434;6.786;2023-05-10T11:45:32;16.00;99.90
36856;DHT22;22788;51.434;6.786;2023-05-10T11:47:58;16.00;99.90
36856;DHT22;22788;51.434;6.786;2023-05-10T11:50:24;16.10;99.90
36856;DHT22;22788;51.434;6.786;2023-05-10T11:52:51;16.10;99.90
36856;DHT22;22788;51.434;6.786;2023-05-10T11:55:18;16.10;99.90
36856;DHT22;22788;51.434;6.786;2023-05-10T11:57:44;16.10;99.90
36856;DHT22;22788;51.434;6.786;2023-05-10T12:00:11;16.10;99.90
36856;DHT22;22788;51.434;6.786;2023-05-10T12:02:37;16.10;99.90
36856;DHT22;22788;51.434;6.786;2023-05-10T12:05:04;16.10;99.90
36856;DHT22;22788;51.434;6.786;2023-05-10T12:07:30;16.10;99.90
36856;DHT22;22788;51.434;6.786;2023-05-10T12:10:06;16.10;99.90
36856;DHT22;22788;51.434;6.786;2023-05-10T12:12:48;16.10;99.90
36856;DHT22;22788;51.434;6.786;2023-05-10T12:15:18;16.10;99.90
36856;DHT22;22788;51.434;6.786;2023-05-10T12:17:45;16.10;99.90
36856;DHT22;22788;51.434;6.786;2023-05-10T12:20:17;16.10;99.90
36856;DHT22;22788;51.434;6.786;2023-05-10T12:22:47;16.20;99.90
36856;DHT22;22788;51.434;6.786;2023-05-10T12:25:14;16.20;99.90
36856;DHT22;22788;51.434;6.786;2023-05-10T12:27:40;16.20;99.90
36856;DHT22;22788;51.434;6.786;2023-05-10T12:30:08;16.30;99.90
36856;DHT22;22788;51.434;6.786;2023-05-10T12:32:40;16.30;99.90
36856;DHT22;22788;51.434;6.786;2023-05-10T12:35:07;16.30;99.90
36856;DHT22;22788;51.434;6.786;2023-05-10T12:37:33;16.40;99.90
36856;DHT22;22788;51.434;6.786;2023-05-10T12:39:58;16.40;99.90
36856;DHT22;22788;51.434;6.786;2023-05-10T12:42:24;16.40;99.90
36856;DHT22;22788;51.434;6.786;2023-05-10T12:44:50;16.40;99.90
36856;DHT22;22788;51.434;6.786;2023-05-10T12:47:21;16.50;99.90
36856;DHT22;22788;51.434;6.786;2023-05-10T12:49:46;16.60;99.90
36856;DHT22;22788;51.434;6.786;2023-05-10T12:52:12;16.70;99.90
36856;DHT22;22788;51.434;6.786;2023-05-10T12:54:37;16.90;99.90
36856;DHT22;22788;51.434;6.786;2023-05-10T12:57:03;17.00;99.90
36856;DHT22;22788;51.434;6.786;2023-05-10T12:59:29;17.10;99.90
36856;DHT22;22788;51.434;6.786;2023-05-10T13:01:54;17.20;99.90
36856;DHT22;22788;51.434;6.786;2023-05-10T13:04:21;17.30;99.90
36856;DHT22;22788;51.434;6.786;2023-05-10T13:06:47;17.40;99.90
36856;DHT22;22788;51.434;6.786;2023-05-10T13:09:12;17.60;99.90
36856;DHT22;22788;51.434;6.786;2023-05-10T13:11:38;17.40;99.90
36856;DHT22;22788;51.434;6.786;2023-05-10T13:14:03;17.50;99.90
36856;DHT22;22788;51.434;6.786;2023-05-10T13:16:29;17.60;99.90
36856;DHT22;22788;51.434;6.786;2023-05-10T13:18:54;17.50;99.90
36856;DHT22;22788;51.434;6.786;2023-05-10T13:21:21;17.50;99.90
36856;DHT22;22788;51.434;6.786;2023-05-10T13:23:47;17.50;99.90
36856;DHT22;22788;51.434;6.786;2023-05-10T13:26:13;17.60;99.90
36856;DHT22;22788;51.434;6.786;2023-05-10T13:28:38;17.50;99.90
36856;DHT22;22788;51.434;6.786;2023-05-10T13:31:04;17.70;99.90
36856;DHT22;22788;51.434;6.786;2023-05-10T13:33:29;17.80;99.90
36856;DHT22;22788;51.434;6.786;2023-05-10T13:35:55;17.80;99.90
36856;DHT22;22788;51.434;6.786;2023-05-10T13:38:22;17.70;99.90
36856;DHT22;22788;51.434;6.786;2023-05-10T13:40:48;17.70;99.90
36856;DHT22;22788;51.434;6.786;2023-05-10T13:43:13;17.70;99.90
36856;DHT22;22788;51.434;6.786;2023-05-10T13:45:39;17.80;99.90
36856;DHT22;22788;51.434;6.786;2023-05-10T13:48:05;17.80;99.90
36856;DHT22;22788;51.434;6.786;2023-05-10T13:50:30;17.70;99.90
36856;DHT22;22788;51.434;6.786;2023-05-10T13:52:56;17.70;99.90
36856;DHT22;22788;51.434;6.786;2023-05-10T13:55:23;17.80;99.90
36856;DHT22;22788;51.434;6.786;2023-05-10T13:57:48;17.80;99.90
36856;DHT22;22788;51.434;6.786;2023-05-10T14:00:14;17.80;99.90
36856;DHT22;22788;51.434;6.786;2023-05-10T14:02:40;17.80;99.90
36856;DHT22;22788;51.434;6.786;2023-05-10T14:05:06;17.90;99.90
36856;DHT22;22788;51.434;6.786;2023-05-10T14:07:32;17.80;99.90
36856;DHT22;22788;51.434;6.786;2023-05-10T14:09:57;17.70;99.90
36856;DHT22;22788;51.434;6.786;2023-05-10T14:12:24;17.70;99.90
36856;DHT22;22788;51.434;6.786;2023-05-10T14:14:50;17.60;99.90
36856;DHT22;22788;51.434;6.786;2023-05-10T14:17:16;17.60;99.90
36856;DHT22;22788;51.434;6.786;2023-05-10T14:19:41;17.60;99.90
36856;DHT22;22788;51.434;6.786;2023-05-10T14:22:07;17.60;99.90
36856;DHT22;22788;51.434;6.786;2023-05-10T14:24:32;17.90;99.90
36856;DHT22;22788;51.434;6.786;2023-05-10T14:26:58;17.70;99.90
36856;DHT22;22788;51.434;6.786;2023-05-10T14:29:25;17.70;99.90
36856;DHT22;22788;51.434;6.786;2023-05-10T14:31:50;17.80;99.90
36856;DHT22;22788;51.434;6.786;2023-05-10T14:34:16;17.90;99.90
36856;DHT22;22788;51.434;6.786;2023-05-10T14:36:42;17.80;99.90
36856;DHT22;22788;51.434;6.786;2023-05-10T14:39:07;17.90;99.90
36856;DHT22;22788;51.434;6.786;2023-05-10T14:41:33;18.10;99.90
36856;DHT22;22788;51.434;6.786;2023-05-10T14:43:58;17.90;99.90
36856;DHT22;22788;51.434;6.786;2023-05-10T14:46:25;17.80;99.90
36856;DHT22;22788;51.434;6.786;2023-05-10T14:48:51;17.90;99.90
36856;DHT22;22788;51.434;6.786;2023-05-10T14:51:16;17.80;99.90
36856;DHT22;22788;51.434;6.786;2023-05-10T14:53:42;17.80;99.90
36856;DHT22;22788;51.434;6.786;2023-05-10T14:56:08;17.80;99.90
36856;DHT22;22788;51.434;6.786;2023-05-10T14:58:33;17.80;99.90
36856;DHT22;22788;51.434;6.786;2023-05-10T15:00:59;17.80;99.90
36856;DHT22;22788;51.434;6.786;2023-05-10T15:03:26;17.80;99.90
36856;DHT22;22788;51.434;6.786;2023-05-10T15:05:52;17.90;99.90
36856;DHT22;22788;51.434;6.786;2023-05-10T15:08:17;18.00;99.90
36856;DHT22;22788;51.434;6.786;2023-05-10T15:10:43;18.00;99.90
36856;DHT22;22788;51.434;6.786;2023-05-10T15:13:08;18.00;99.90
36856;DHT22;22788;51.434;6.786;2023-05-10T15:15:34;18.00;99.90
36856;DHT22;22788;51.434;6.786;2023-05-10T15:17:59;17.90;99.90
36856;DHT22;22788;51.434;6.786;2023-05-10T15:20:26;17.80;99.90
36856;DHT22;22788;51.434;6.786;2023-05-10T15:22:52;17.70;99.90
36856;DHT22;22788;51.434;6.786;2023-05-10T15:25:17;17.80;99.90
36856;DHT22;22788;51.434;6.786;2023-05-10T15:27:43;17.70;99.90
36856;DHT22;22788;51.434;6.786;2023-05-10T15:30:10;17.70;99.90
36856;DHT22;22788;51.434;6.786;2023-05-10T15:32:35;17.70;99.90
36856;DHT22;22788;51.434;6.786;2023-05-10T15:35:01;17.70;99.90
36856;DHT22;22788;51.434;6.786;2023-05-10T15:37:28;17.60;99.90
36856;DHT22;22788;51.434;6.786;2023-05-10T15:39:54;17.50;99.90
36856;DHT22;22788;51.434;6.786;2023-05-10T15:42:19;17.40;99.90
36856;DHT22;22788;51.434;6.786;2023-05-10T15:44:45;17.30;99.90
36856;DHT22;22788;51.434;6.786;2023-05-10T15:47:10;17.30;99.90
36856;DHT22;22788;51.434;6.786;2023-05-10T15:49:36;17.20;99.90
36856;DHT22;22788;51.434;6.786;2023-05-10T15:52:02;17.10;99.90
36856;DHT22;22788;51.434;6.786;2023-05-10T15:54:29;17.00;99.90
36856;DHT22;22788;51.434;6.786;2023-05-10T15:56:54;16.90;99.90
36856;DHT22;22788;51.434;6.786;2023-05-10T15:59:20;16.80;99.90
36856;DHT22;22788;51.434;6.786;2023-05-10T16:01:45;16.70;99.90
36856;DHT22;22788;51.434;6.786;2023-05-10T16:04:11;16.50;99.90
36856;DHT22;22788;51.434;6.786;2023-05-10T16:06:37;16.50;99.90
36856;DHT22;22788;51.434;6.786;2023-05-10T16:09:02;16.40;99.90
36856;DHT22;22788;51.434;6.786;2023-05-10T16:11:29;16.30;99.90
36856;DHT22;22788;51.434;6.786;2023-05-10T16:13:55;16.20;99.90
36856;DHT22;22788;51.434;6.786;2023-05-10T16:16:20;16.20;99.90
36856;DHT22;22788;51.434;6.786;2023-05-10T16:18:46;16.30;99.90
36856;DHT22;22788;51.434;6.786;2023-05-10T16:21:12;16.40;99.90
36856;DHT22;22788;51.434;6.786;2023-05-10T16:23:37;16.40;99.90
36856;DHT22;22788;51.434;6.786;2023-05-10T16:26:03;16.50;99.90
36856;DHT22;22788;51.434;6.786;2023-05-10T16:28:30;16.50;99.90
36856;DHT22;22788;51.434;6.786;2023-05-10T16:30:56;16.60;99.90
36856;DHT22;22788;51.434;6.786;2023-05-10T16:33:21;16.60;99.90
36856;DHT22;22788;51.434;6.786;2023-05-10T16:35:47;16.70;99.90
36856;DHT22;22788;51.434;6.786;2023-05-10T16:38:12;16.60;99.90
36856;DHT22;22788;51.434;6.786;2023-05-10T16:40:38;16.60;99.90
36856;DHT22;22788;51.434;6.786;2023-05-10T16:43:03;16.60;99.90
36856;DHT22;22788;51.434;6.786;2023-05-10T16:45:31;16.60;99.90
36856;DHT22;22788;51.434;6.786;2023-05-10T16:47:57;16.60;99.90
36856;DHT22;22788;51.434;6.786;2023-05-10T16:50:22;16.60;99.90
36856;DHT22;22788;51.434;6.786;2023-05-10T16:52:48;16.50;99.90
36856;DHT22;22788;51.434;6.786;2023-05-10T16:55:14;16.40;99.90
36856;DHT22;22788;51.434;6.786;2023-05-10T16:57:39;16.40;99.90
36856;DHT22;22788;51.434;6.786;2023-05-10T17:00:06;16.40;99.90
36856;DHT22;22788;51.434;6.786;2023-05-10T17:02:33;16.50;99.90
36856;DHT22;22788;51.434;6.786;2023-05-10T17:04:59;16.40;99.90
36856;DHT22;22788;51.434;6.786;2023-05-10T17:07:24;16.40;99.90
36856;DHT22;22788;51.434;6.786;2023-05-10T17:09:50;16.40;99.90
36856;DHT22;22788;51.434;6.786;2023-05-10T17:12:15;16.40;99.90
36856;DHT22;22788;51.434;6.786;2023-05-10T17:14:41;16.50;99.90
36856;DHT22;22788;51.434;6.786;2023-05-10T17:17:06;16.70;99.90
36856;DHT22;22788;51.434;6.786;2023-05-10T17:19:34;16.50;99.90